Time;durP1;ratioP1;P1;durP2;ratioP2;P2;SDS_P1;SDS_P2;PMS_P1;PMS_P2;Temp;Humidity;BMP_temperature;BMP_pressure;BME280_temperature;BME280_humidity;BME280_pressure;Samples;Min_cycle;Max_cycle;Signal;HPM_P1;HPM_P2
2023/09/29 00:00:49;;;;;;;2.03;1.90;;;;;;;23.15;67.65;97828.75;5000073;28;20202;-25
2023/09/29 00:03:17;;;;;;;2.00;1.90;;;;;;;23.14;67.55;97835.56;5005935;28;20194;-25
2023/09/29 00:05:44;;;;;;;1.80;1.70;;;;;;;23.13;67.76;97832.97;5010060;28;20653;-25
2023/09/29 00:08:16;;;;;;;2.10;2.00;;;;;;;23.13;67.61;97832.97;5003597;28;20700;-24
2023/09/29 00:10:45;;;;;;;2.13;2.03;;;;;;;23.13;67.75;97836.41;5008769;28;20198;-25
2023/09/29 00:13:12;;;;;;;2.13;1.93;;;;;;;23.13;67.66;97838.97;5009609;28;20579;-25
2023/09/29 00:15:38;;;;;;;1.93;1.80;;;;;;;23.12;67.81;97826.97;5008021;28;20194;-25
2023/09/29 00:18:07;;;;;;;1.80;1.70;;;;;;;23.14;67.74;97829.56;5004889;28;20607;-25
2023/09/29 00:20:37;;;;;;;2.30;2.10;;;;;;;23.12;67.54;97826.97;4998710;28;20203;-28
2023/09/29 00:23:03;;;;;;;2.23;2.03;;;;;;;23.13;67.80;97835.53;5009742;28;20209;-25
2023/09/29 00:25:30;;;;;;;2.30;2.10;;;;;;;23.12;67.73;97839.78;5003277;28;20198;-25
2023/09/29 00:27:57;;;;;;;1.83;1.73;;;;;;;23.13;67.75;97838.09;5006480;28;20638;-25
2023/09/29 00:30:23;;;;;;;2.27;2.00;;;;;;;23.13;67.84;97828.72;5006313;28;20210;-25
2023/09/29 00:32:51;;;;;;;2.30;2.10;;;;;;;23.13;67.63;97832.97;5011260;28;20214;-25
2023/09/29 00:35:24;;;;;;;2.13;1.93;;;;;;;23.14;67.75;97827.00;5011806;28;20233;-25
2023/09/29 00:37:53;;;;;;;1.93;1.83;;;;;;;23.13;67.67;97827.84;5002900;28;20226;-25
2023/09/29 00:40:20;;;;;;;1.90;1.80;;;;;;;23.12;67.77;97821.84;5011836;28;20233;-25
2023/09/29 00:42:46;;;;;;;2.37;2.20;;;;;;;23.11;68.15;97821.78;5007593;28;20668;-25
2023/09/29 00:45:16;;;;;;;1.70;1.60;;;;;;;23.11;67.74;97817.53;5011304;28;20230;-25
2023/09/29 00:47:43;;;;;;;2.13;1.93;;;;;;;23.11;67.67;97827.81;5008490;28;20246;-25
2023/09/29 00:50:10;;;;;;;2.13;2.03;;;;;;;23.11;67.58;97822.66;5002504;28;20245;-25
2023/09/29 00:52:38;;;;;;;2.73;2.00;;;;;;;23.13;67.68;97822.72;5004096;28;20231;-25
2023/09/29 00:55:11;;;;;;;2.17;2.00;;;;;;;23.12;67.73;97815.88;5010670;28;20217;-25
2023/09/29 00:57:39;;;;;;;2.20;2.00;;;;;;;23.13;67.60;97815.91;4998949;28;20227;-25
2023/09/29 01:00:14;;;;;;;2.00;1.90;;;;;;;23.13;67.68;97820.16;5008682;28;20206;-25
2023/09/29 01:02:43;;;;;;;2.07;1.90;;;;;;;23.13;67.78;97815.03;5002528;28;20206;-25
2023/09/29 01:05:13;;;;;;;1.70;1.60;;;;;;;23.12;67.81;97819.28;4996546;28;20226;-25
2023/09/29 01:07:43;;;;;;;1.90;1.80;;;;;;;23.12;67.72;97816.72;4974539;28;20245;-25
2023/09/29 01:10:11;;;;;;;2.23;2.03;;;;;;;23.13;67.64;97817.59;5013830;28;20249;-25
2023/09/29 01:12:37;;;;;;;2.20;2.00;;;;;;;23.13;67.72;97817.59;5014472;28;20309;-25
2023/09/29 01:15:08;;;;;;;2.10;2.00;;;;;;;23.08;67.78;97802.06;5013906;28;20198;-25
2023/09/29 01:17:35;;;;;;;1.87;1.77;;;;;;;23.12;67.72;97811.56;5007749;28;20226;-25
2023/09/29 01:20:05;;;;;;;1.90;1.80;;;;;;;23.11;67.77;97809.84;5013570;28;20268;-25
2023/09/29 01:22:33;;;;;;;2.63;1.80;;;;;;;23.12;67.65;97810.72;5009418;28;20214;-25
2023/09/29 01:25:00;;;;;;;2.00;1.90;;;;;;;23.11;67.69;97812.41;5013231;28;20203;-25
2023/09/29 01:27:27;;;;;;;2.13;2.03;;;;;;;23.11;67.77;97808.97;5013759;28;20234;-25
2023/09/29 01:29:53;;;;;;;2.10;1.90;;;;;;;23.12;67.82;97806.44;5011036;28;20198;-25
2023/09/29 01:32:20;;;;;;;2.10;2.00;;;;;;;23.12;67.83;97811.56;5009834;28;20229;-25
2023/09/29 01:34:47;;;;;;;2.60;2.40;;;;;;;23.12;67.71;97818.44;5009112;28;20672;-25
2023/09/29 01:37:13;;;;;;;2.20;2.10;;;;;;;23.12;67.58;97810.72;5013800;28;20210;-25
2023/09/29 01:39:40;;;;;;;1.97;1.83;;;;;;;23.12;67.56;97809.00;5007316;28;20198;-25
2023/09/29 01:42:07;;;;;;;1.93;1.83;;;;;;;23.12;67.72;97814.13;5002336;28;20792;-25
2023/09/29 01:44:34;;;;;;;2.17;2.00;;;;;;;23.13;67.75;97815.03;5006511;28;20224;-25
2023/09/29 01:47:00;;;;;;;2.00;1.90;;;;;;;23.14;67.75;97819.31;5013198;28;20198;-25
2023/09/29 01:49:27;;;;;;;2.00;1.90;;;;;;;23.12;67.74;97826.13;5014067;28;20229;-25
2023/09/29 01:51:54;;;;;;;2.77;2.00;;;;;;;23.12;67.65;97824.41;5007611;28;20260;-25
2023/09/29 01:54:20;;;;;;;2.40;2.20;;;;;;;23.12;67.68;97821.00;5013058;28;20248;-25
2023/09/29 01:56:47;;;;;;;2.37;2.17;;;;;;;23.11;67.68;97820.09;5008789;28;20630;-26
2023/09/29 01:59:13;;;;;;;2.90;2.17;;;;;;;23.11;67.66;97824.34;5012263;28;20647;-25
2023/09/29 02:01:40;;;;;;;2.30;2.10;;;;;;;23.10;67.72;97823.50;5011615;28;20972;-25
2023/09/29 02:04:07;;;;;;;2.20;2.10;;;;;;;23.10;67.70;97828.63;5008485;28;20207;-25
2023/09/29 02:06:34;;;;;;;2.03;1.93;;;;;;;23.11;67.53;97829.50;5010496;28;20206;-25
2023/09/29 02:09:00;;;;;;;1.87;1.77;;;;;;;23.10;67.70;97831.19;5009191;28;20218;-25
2023/09/29 02:11:27;;;;;;;2.00;1.90;;;;;;;23.10;67.80;97833.78;5010539;28;20677;-25
2023/09/29 02:13:54;;;;;;;1.80;1.70;;;;;;;23.10;67.71;97831.19;5011403;28;20222;-25
2023/09/29 02:16:21;;;;;;;2.00;1.90;;;;;;;23.10;67.56;97838.00;5009142;28;20640;-25
2023/09/29 02:18:48;;;;;;;1.93;1.83;;;;;;;23.12;67.85;97844.06;5010565;28;20222;-26
2023/09/29 02:21:27;;;;;;;1.97;1.87;;;;;;;23.12;67.79;97849.19;5011778;28;20202;-25
2023/09/29 02:23:55;;;;;;;2.30;1.90;;;;;;;23.12;67.77;97847.47;5010488;28;20198;-25
2023/09/29 02:26:26;;;;;;;1.93;1.83;;;;;;;23.12;67.86;97842.34;5009199;28;20206;-25
2023/09/29 02:28:54;;;;;;;2.13;2.00;;;;;;;23.11;67.71;97839.75;5011133;28;20232;-25
2023/09/29 02:31:22;;;;;;;1.90;1.80;;;;;;;23.12;67.79;97849.19;5011076;28;20237;-25
2023/09/29 02:33:50;;;;;;;2.40;2.20;;;;;;;23.12;67.68;97841.50;5010891;28;20218;-26
2023/09/29 02:36:17;;;;;;;2.07;1.97;;;;;;;23.11;67.71;97832.06;5009927;28;20830;-26
2023/09/29 02:38:44;;;;;;;2.20;2.10;;;;;;;23.11;67.39;97837.19;5010586;28;20231;-25
2023/09/29 02:41:10;;;;;;;2.07;1.97;;;;;;;23.10;67.76;97832.88;5010867;28;20206;-25
2023/09/29 02:43:37;;;;;;;2.20;2.00;;;;;;;23.10;67.93;97838.00;5011035;28;20207;-25
2023/09/29 02:46:04;;;;;;;2.07;1.97;;;;;;;23.10;67.74;97844.03;5009823;28;20202;-25
2023/09/29 02:48:30;;;;;;;2.10;2.00;;;;;;;23.11;68.12;97837.19;5008684;28;20234;-25
2023/09/29 02:50:57;;;;;;;1.97;1.87;;;;;;;23.10;67.71;97841.47;5011015;28;20207;-25
2023/09/29 02:53:24;;;;;;;2.20;2.00;;;;;;;23.10;67.79;97838.91;5010094;28;20301;-25
2023/09/29 02:55:50;;;;;;;2.03;1.93;;;;;;;23.10;67.81;97835.44;5009913;28;20194;-25
2023/09/29 02:58:17;;;;;;;2.20;2.00;;;;;;;23.11;67.74;97843.19;5009886;28;20226;-25
2023/09/29 03:00:44;;;;;;;2.23;1.87;;;;;;;23.11;67.81;97838.06;5005325;28;21071;-25
2023/09/29 03:03:10;;;;;;;2.27;2.07;;;;;;;23.11;67.84;97842.31;5012108;28;20203;-25
2023/09/29 03:05:40;;;;;;;2.03;1.93;;;;;;;23.10;67.96;97836.34;5012175;28;20629;-25
2023/09/29 03:08:07;;;;;;;1.93;1.83;;;;;;;23.11;67.77;97842.31;5011727;28;20264;-25
2023/09/29 03:10:33;;;;;;;2.00;1.90;;;;;;;23.10;67.84;97836.34;5007816;28;20198;-25
2023/09/29 03:13:00;;;;;;;1.93;1.83;;;;;;;23.10;67.76;97838.91;5011990;28;20225;-25
2023/09/29 03:15:26;;;;;;;2.00;1.90;;;;;;;23.09;67.85;97834.56;5005448;28;20661;-25
2023/09/29 03:17:55;;;;;;;2.20;2.10;;;;;;;23.10;67.78;97832.88;5009308;28;20241;-25
2023/09/29 03:20:25;;;;;;;1.97;1.87;;;;;;;23.10;67.77;97840.56;5000875;28;20261;-25
2023/09/29 03:22:52;;;;;;;2.00;1.90;;;;;;;23.09;67.72;97832.00;5004420;28;20269;-25
2023/09/29 03:25:20;;;;;;;1.90;1.80;;;;;;;23.10;67.88;97835.44;5011802;28;20268;-25
2023/09/29 03:27:48;;;;;;;2.17;1.97;;;;;;;23.10;67.84;97833.78;5012689;28;20222;-25
2023/09/29 03:30:15;;;;;;;2.00;1.90;;;;;;;23.09;67.77;97847.38;5002418;28;20236;-26
2023/09/29 03:32:43;;;;;;;2.00;1.90;;;;;;;23.10;67.88;97844.03;5010462;28;20218;-25
2023/09/29 03:35:10;;;;;;;2.00;1.90;;;;;;;23.10;67.78;97849.16;5011638;28;20198;-25
2023/09/29 03:37:39;;;;;;;2.03;1.93;;;;;;;23.10;67.61;97841.47;5006166;28;20724;-25
2023/09/29 03:40:08;;;;;;;2.00;1.90;;;;;;;23.10;67.76;97844.03;5011347;28;20285;-25
2023/09/29 03:42:36;;;;;;;2.30;2.10;;;;;;;23.10;67.83;97848.28;4997294;28;20561;-25
2023/09/29 03:45:06;;;;;;;2.00;1.90;;;;;;;23.10;67.68;97838.00;5012130;28;20202;-25
2023/09/29 03:47:34;;;;;;;2.07;1.97;;;;;;;23.09;67.76;97837.13;5005460;28;20228;-25
2023/09/29 03:50:01;;;;;;;2.10;2.00;;;;;;;23.08;67.85;97835.41;5009582;28;20233;-25
2023/09/29 03:52:32;;;;;;;2.17;1.97;;;;;;;23.09;67.83;97837.13;5003625;28;20562;-25
2023/09/29 03:54:58;;;;;;;1.90;1.80;;;;;;;23.08;67.87;97835.41;5012067;28;20565;-25
2023/09/29 03:57:25;;;;;;;1.83;1.73;;;;;;;23.08;67.73;97837.09;5011647;28;20735;-25
2023/09/29 03:59:52;;;;;;;2.00;1.90;;;;;;;23.08;67.95;97840.53;5007771;28;21411;-25
2023/09/29 04:02:20;;;;;;;2.30;2.10;;;;;;;23.09;67.84;97838.81;5006790;28;20206;-26
2023/09/29 04:04:47;;;;;;;1.90;1.70;;;;;;;23.09;67.80;97838.81;4994906;28;20203;-25
2023/09/29 04:07:14;;;;;;;1.97;1.87;;;;;;;23.09;67.81;97841.38;5009657;28;20657;-25
2023/09/29 04:09:41;;;;;;;2.00;1.90;;;;;;;23.09;67.85;97841.38;5003540;28;20703;-25
2023/09/29 04:12:08;;;;;;;2.00;1.90;;;;;;;23.10;67.83;97849.16;5002561;28;20194;-25
2023/09/29 04:14:34;;;;;;;2.30;2.10;;;;;;;23.08;67.87;97843.09;5009916;28;20208;-25
2023/09/29 04:17:01;;;;;;;2.00;1.90;;;;;;;23.10;67.79;97843.13;5011967;28;20202;-25
2023/09/29 04:19:28;;;;;;;2.27;2.07;;;;;;;23.09;67.91;97847.38;5005823;28;20666;-25
2023/09/29 04:21:54;;;;;;;2.00;1.90;;;;;;;23.10;67.80;97838.91;5002907;28;20248;-25
2023/09/29 04:24:21;;;;;;;2.03;1.93;;;;;;;23.09;67.83;97834.56;5011361;28;20248;-25
2023/09/29 04:26:48;;;;;;;2.27;2.07;;;;;;;23.09;67.85;97842.25;5001280;28;20720;-25
2023/09/29 04:29:15;;;;;;;2.10;1.90;;;;;;;23.08;67.88;97842.22;5011373;28;20320;-25
2023/09/29 04:31:41;;;;;;;1.90;1.80;;;;;;;23.09;67.73;97833.69;5010262;28;20206;-25
2023/09/29 04:34:08;;;;;;;2.27;2.07;;;;;;;23.08;67.89;97839.66;5010925;28;20222;-27
2023/09/29 04:36:35;;;;;;;1.93;1.83;;;;;;;23.07;68.00;97838.78;5006397;28;20669;-25
2023/09/29 04:39:01;;;;;;;2.20;2.00;;;;;;;23.07;67.87;97838.78;5007181;28;20237;-25
2023/09/29 04:41:29;;;;;;;2.40;2.20;;;;;;;23.08;67.94;97843.09;5012529;28;20206;-25
2023/09/29 04:43:56;;;;;;;2.00;1.90;;;;;;;23.09;67.74;97841.38;5010034;28;20199;-25
2023/09/29 04:46:23;;;;;;;1.80;1.70;;;;;;;23.09;67.85;97846.50;5012998;28;20201;-25
2023/09/29 04:48:53;;;;;;;2.20;2.00;;;;;;;23.05;67.95;97845.56;5011119;28;20648;-25
2023/09/29 04:51:20;;;;;;;2.07;1.97;;;;;;;23.10;67.80;97855.97;5013147;28;20633;-25
2023/09/29 04:53:47;;;;;;;2.20;2.00;;;;;;;23.10;67.87;97850.84;5011136;28;20309;-25
2023/09/29 04:56:13;;;;;;;2.03;1.90;;;;;;;23.09;67.84;97859.31;5011804;28;20624;-25
2023/09/29 04:58:40;;;;;;;2.03;1.93;;;;;;;23.10;67.93;97863.66;5011542;28;20715;-25
2023/09/29 05:01:06;;;;;;;2.03;1.93;;;;;;;23.09;67.81;97864.47;5010676;28;20209;-25
2023/09/29 05:03:33;;;;;;;1.90;1.80;;;;;;;23.11;67.86;97867.94;5010175;28;20199;-25
2023/09/29 05:06:00;;;;;;;2.13;2.03;;;;;;;23.10;68.01;97866.22;5011990;28;20194;-25
2023/09/29 05:08:27;;;;;;;1.97;1.87;;;;;;;23.09;67.85;97873.03;5013296;28;20222;-25
2023/09/29 05:10:53;;;;;;;1.97;1.87;;;;;;;23.10;67.90;97874.78;5013657;28;20253;-25
2023/09/29 05:13:20;;;;;;;2.03;1.93;;;;;;;23.04;67.70;97861.75;5011756;28;20617;-25
2023/09/29 05:15:48;;;;;;;2.10;2.00;;;;;;;23.10;67.83;97868.78;5012362;28;20213;-25
2023/09/29 05:18:15;;;;;;;2.20;2.10;;;;;;;23.09;67.86;97877.28;5012010;28;20705;-25
2023/09/29 05:20:43;;;;;;;1.90;1.80;;;;;;;23.10;67.79;97884.16;5012691;28;20198;-25
2023/09/29 05:23:10;;;;;;;2.43;1.63;;;;;;;23.10;67.78;97879.03;5009207;28;20222;-25
2023/09/29 05:25:36;;;;;;;2.30;2.10;;;;;;;23.12;67.79;97890.22;5011176;28;20198;-25
2023/09/29 05:28:03;;;;;;;1.90;1.80;;;;;;;23.10;67.64;97885.03;5013122;28;20288;-25
2023/09/29 05:30:30;;;;;;;2.40;2.20;;;;;;;23.12;67.78;97882.53;5011952;28;20233;-25
2023/09/29 05:32:57;;;;;;;2.27;2.07;;;;;;;23.12;67.73;97882.53;5005071;28;20288;-25
2023/09/29 05:35:23;;;;;;;1.87;1.77;;;;;;;23.11;67.81;97894.47;5004803;28;20265;-25
2023/09/29 05:37:51;;;;;;;2.10;2.00;;;;;;;23.11;67.68;97889.34;5011509;28;20217;-25
2023/09/29 05:40:17;;;;;;;2.00;1.90;;;;;;;23.12;67.68;97888.50;5012764;28;20213;-25
2023/09/29 05:42:44;;;;;;;1.90;1.80;;;;;;;23.12;67.84;97887.66;5013907;28;20692;-25
2023/09/29 05:45:20;;;;;;;2.30;2.10;;;;;;;23.12;67.77;97893.63;5014148;28;20210;-25
2023/09/29 05:47:49;;;;;;;2.10;2.00;;;;;;;23.11;67.74;97889.34;5008958;28;20238;-25
2023/09/29 05:50:16;;;;;;;3.40;2.10;;;;;;;23.12;67.85;97892.78;5013553;28;20208;-25
2023/09/29 05:52:45;;;;;;;2.07;1.97;;;;;;;23.11;67.78;97893.59;5006480;28;20680;-25
2023/09/29 05:55:32;;;;;;;2.03;1.93;;;;;;;23.12;67.82;97888.50;5012004;28;20210;-25
2023/09/29 05:57:59;;;;;;;2.27;2.07;;;;;;;23.13;67.69;97889.38;5009767;28;20269;-25
2023/09/29 06:00:25;;;;;;;2.10;1.90;;;;;;;23.12;67.71;97888.50;5013896;28;20206;-25
2023/09/29 06:02:53;;;;;;;1.90;1.80;;;;;;;23.14;67.73;97893.66;5005338;28;20207;-25
2023/09/29 06:05:20;;;;;;;1.97;1.77;;;;;;;23.14;67.66;97881.72;5005324;28;20210;-25
2023/09/29 06:07:47;;;;;;;1.97;1.87;;;;;;;23.14;67.68;97894.56;5007700;28;20281;-25
2023/09/29 06:10:14;;;;;;;2.17;2.07;;;;;;;23.16;67.70;97905.72;5011632;28;20225;-25
2023/09/29 06:12:40;;;;;;;2.20;2.10;;;;;;;23.16;67.97;97904.84;5012481;28;20194;-26
2023/09/29 06:15:09;;;;;;;4.57;1.90;;;;;;;23.16;67.75;97907.41;5008929;28;20198;-25
2023/09/29 06:17:36;;;;;;;2.73;2.40;;;;;;;23.17;67.47;97906.56;5001755;28;20222;-25
2023/09/29 06:20:04;;;;;;;4.10;2.20;;;;;;;23.17;67.40;97901.44;5011591;28;20198;-25
2023/09/29 06:22:31;;;;;;;2.60;2.40;;;;;;;23.16;67.79;97899.72;5009179;28;20209;-25
2023/09/29 06:24:58;;;;;;;2.40;2.20;;;;;;;23.15;67.54;97896.28;5013312;28;20194;-25
2023/09/29 06:27:25;;;;;;;5.37;2.07;;;;;;;23.15;67.57;97901.41;5009524;28;20218;-25
2023/09/29 06:29:52;;;;;;;2.30;2.10;;;;;;;23.15;67.72;97908.25;5012281;28;20244;-25
2023/09/29 06:32:19;;;;;;;4.00;2.00;;;;;;;23.16;67.85;97920.22;5008167;28;20583;-27
2023/09/29 06:34:46;;;;;;;3.20;2.37;;;;;;;23.15;67.57;97924.47;5000103;28;20229;-25
2023/09/29 06:37:12;;;;;;;2.70;2.33;;;;;;;23.14;67.97;97927.00;4996043;28;20210;-25
2023/09/29 06:39:39;;;;;;;2.10;2.00;;;;;;;23.14;67.93;97935.56;4995735;28;20243;-25
2023/09/29 06:42:07;;;;;;;2.40;2.20;;;;;;;23.15;67.75;97932.19;4995231;28;20743;-25
2023/09/29 06:44:33;;;;;;;3.90;2.33;;;;;;;23.15;67.92;97939.03;4996192;28;20293;-25
2023/09/29 06:47:00;;;;;;;2.33;2.13;;;;;;;23.14;68.01;97940.69;4993223;28;20219;-25
2023/09/29 06:49:27;;;;;;;2.13;2.03;;;;;;;23.15;68.02;97949.28;4998408;28;20303;-28
2023/09/29 06:51:54;;;;;;;2.53;2.30;;;;;;;23.16;68.12;97956.13;4996465;28;20565;-26
2023/09/29 06:54:20;;;;;;;2.50;2.10;;;;;;;23.16;67.92;97953.56;4996664;28;20280;-28
2023/09/29 06:56:47;;;;;;;2.60;2.37;;;;;;;23.16;67.97;97953.56;5009346;28;20625;-25
2023/09/29 06:59:14;;;;;;;5.13;2.30;;;;;;;23.15;67.80;97950.13;5010164;28;20296;-25
2023/09/29 07:01:40;;;;;;;2.43;2.23;;;;;;;23.15;68.03;97955.25;5009137;28;20195;-25
2023/09/29 07:04:07;;;;;;;2.30;2.10;;;;;;;23.15;67.94;97954.41;5008655;28;20268;-25
2023/09/29 07:06:36;;;;;;;1.77;1.67;;;;;;;22.45;67.90;97836.06;5008110;28;20213;-25
2023/09/29 07:09:03;;;;;;;2.50;2.20;;;;;;;23.14;67.77;97939.81;5009683;28;20230;-25
2023/09/29 07:11:32;;;;;;;2.30;2.10;;;;;;;23.14;67.86;97945.84;5009803;28;20198;-25
2023/09/29 07:13:58;;;;;;;2.83;2.30;;;;;;;23.14;67.62;97944.94;5009032;28;20225;-25
2023/09/29 07:16:25;;;;;;;2.13;1.93;;;;;;;23.14;67.92;97957.78;5010575;28;20202;-25
2023/09/29 07:18:52;;;;;;;2.40;2.20;;;;;;;23.15;67.82;97959.53;5010024;28;20243;-25
2023/09/29 07:21:19;;;;;;;2.67;2.43;;;;;;;23.14;67.80;97962.91;5009507;28;20290;-25
2023/09/29 07:23:46;;;;;;;2.40;2.20;;;;;;;23.15;68.04;97962.94;5012272;28;20226;-25
2023/09/29 07:26:13;;;;;;;2.30;2.10;;;;;;;23.15;67.79;97956.97;5009351;28;20209;-25
2023/09/29 07:28:40;;;;;;;2.43;2.23;;;;;;;23.14;67.89;97944.94;5010549;28;20268;-25
2023/09/29 07:31:07;;;;;;;3.30;2.10;;;;;;;23.15;67.79;97955.25;5007981;28;20292;-25
2023/09/29 07:33:34;;;;;;;2.57;2.30;;;;;;;23.15;67.71;97951.84;5009691;28;20226;-25
2023/09/29 07:36:01;;;;;;;2.80;2.23;;;;;;;23.15;67.75;97946.72;5009335;28;20195;-25
2023/09/29 07:38:27;;;;;;;2.60;2.27;;;;;;;23.15;67.65;97950.13;5010070;28;20297;-26
2023/09/29 07:40:54;;;;;;;3.43;2.20;;;;;;;23.15;67.96;97954.41;5010136;28;20202;-26
2023/09/29 07:43:21;;;;;;;3.63;2.30;;;;;;;23.15;67.77;97956.97;5010207;28;20668;-25
2023/09/29 07:45:48;;;;;;;5.87;2.40;;;;;;;23.15;67.75;97954.41;5009606;28;20604;-25
2023/09/29 07:48:16;;;;;;;3.77;2.50;;;;;;;23.15;67.85;97964.66;5009698;28;20654;-25
2023/09/29 07:50:43;;;;;;;2.37;2.17;;;;;;;23.15;67.64;97965.50;5006695;28;20222;-26
2023/09/29 07:53:11;;;;;;;2.90;2.40;;;;;;;23.09;67.80;97944.81;5010232;28;20203;-25
2023/09/29 07:55:38;;;;;;;5.13;2.47;;;;;;;23.14;67.80;97953.53;5000493;28;20309;-25
2023/09/29 07:58:06;;;;;;;2.53;2.13;;;;;;;23.13;67.82;97962.06;5007007;28;20225;-25
2023/09/29 08:00:32;;;;;;;3.10;2.43;;;;;;;23.14;67.95;97957.78;5007711;28;20572;-25
2023/09/29 08:02:59;;;;;;;8.63;2.20;;;;;;;23.15;67.80;97962.09;5008416;28;20202;-26
2023/09/29 08:05:26;;;;;;;4.83;2.53;;;;;;;23.15;67.71;97968.06;5008947;28;20585;-25
2023/09/29 08:07:53;;;;;;;3.73;2.30;;;;;;;23.15;67.81;97960.38;5007903;28;20218;-26
2023/09/29 08:10:20;;;;;;;11.13;2.43;;;;;;;23.15;68.02;97967.22;5008832;28;20845;-25
2023/09/29 08:12:46;;;;;;;4.33;2.50;;;;;;;23.14;67.86;97963.78;5007278;28;20202;-25
2023/09/29 08:15:14;;;;;;;2.47;2.23;;;;;;;23.15;67.97;97970.63;5009062;28;20218;-25
2023/09/29 08:17:41;;;;;;;2.80;2.20;;;;;;;23.15;67.88;97988.59;5006150;28;20272;-25
2023/09/29 08:20:09;;;;;;;4.60;2.40;;;;;;;23.15;67.91;97980.91;5007440;28;20199;-25
2023/09/29 08:22:35;;;;;;;6.90;2.67;;;;;;;23.15;67.94;97998.84;5008545;28;20260;-25
2023/09/29 08:25:08;;;;;;;4.47;2.40;;;;;;;23.16;68.16;97994.59;5006305;28;20553;-25
2023/09/29 08:27:36;;;;;;;9.53;2.77;;;;;;;23.15;67.90;97995.44;5009067;28;20300;-25
2023/09/29 08:30:03;;;;;;;5.20;2.33;;;;;;;23.15;67.62;97992.88;5009144;28;20245;-25
2023/09/29 08:32:30;;;;;;;3.83;2.33;;;;;;;23.05;67.81;97981.44;5006893;28;20198;-25
2023/09/29 08:34:58;;;;;;;4.57;2.40;;;;;;;23.14;67.82;97984.28;5009223;28;20309;-25
2023/09/29 08:37:24;;;;;;;3.40;2.30;;;;;;;23.14;67.82;97983.41;5002348;28;20206;-25
2023/09/29 08:39:53;;;;;;;4.07;2.30;;;;;;;23.15;67.87;97977.47;5008852;28;20214;-25
2023/09/29 08:42:37;;;;;;;3.73;2.13;;;;;;;23.15;67.77;97972.34;5007576;28;20206;-25
2023/09/29 08:45:13;;;;;;;5.17;2.60;;;;;;;23.14;67.73;97971.47;5004786;28;20214;-25
2023/09/29 08:47:40;;;;;;;2.90;2.60;;;;;;;23.16;68.22;97989.47;5002563;28;20225;-25
2023/09/29 08:50:09;;;;;;;5.00;2.63;;;;;;;23.15;67.94;97980.03;5005380;28;20276;-25
2023/09/29 08:52:35;;;;;;;6.63;2.40;;;;;;;23.15;67.96;97985.19;5004614;28;20203;-25
2023/09/29 08:55:03;;;;;;;2.77;2.43;;;;;;;23.16;67.86;97979.22;5004379;28;20225;-25
2023/09/29 08:57:30;;;;;;;4.73;2.40;;;;;;;23.15;67.59;97980.91;5003064;28;20577;-25
2023/09/29 08:59:58;;;;;;;6.87;2.47;;;;;;;23.16;67.92;97971.50;5000892;28;20198;-25
2023/09/29 09:02:24;;;;;;;8.33;2.63;;;;;;;23.12;67.98;97969.69;5010384;28;20199;-25
2023/09/29 09:04:52;;;;;;;3.73;2.57;;;;;;;23.15;67.82;97980.03;4975439;28;20282;-25
2023/09/29 09:07:19;;;;;;;3.33;2.20;;;;;;;23.15;67.98;97987.75;4993968;28;20702;-25
2023/09/29 09:09:50;;;;;;;5.97;2.20;;;;;;;23.14;67.99;97978.28;4994181;28;20236;-26
2023/09/29 09:12:17;;;;;;;4.07;2.40;;;;;;;23.14;68.01;97983.41;4997567;28;20588;-25
2023/09/29 09:14:44;;;;;;;3.13;2.40;;;;;;;23.14;67.87;97985.97;4994136;28;20251;-25
2023/09/29 09:17:11;;;;;;;4.73;2.40;;;;;;;23.14;67.89;97980.84;4994351;28;20693;-25
2023/09/29 09:19:47;;;;;;;4.97;2.70;;;;;;;23.14;67.89;97983.41;4994563;28;20202;-25
2023/09/29 09:22:14;;;;;;;3.70;2.20;;;;;;;23.14;67.97;97974.03;4993761;28;20245;-25
2023/09/29 09:24:41;;;;;;;5.93;2.23;;;;;;;23.15;68.16;97969.78;4994097;28;20212;-27
2023/09/29 09:27:10;;;;;;;3.30;2.10;;;;;;;23.15;68.08;97977.47;4995335;28;20651;-25
2023/09/29 09:29:41;;;;;;;3.10;2.30;;;;;;;23.14;68.16;97979.16;5000134;28;20268;-25
2023/09/29 09:32:10;;;;;;;2.57;2.07;;;;;;;23.15;67.96;97982.63;4993809;28;20673;-26
2023/09/29 09:34:37;;;;;;;4.47;2.30;;;;;;;23.14;68.16;97971.47;4998559;28;20740;-25
2023/09/29 09:37:06;;;;;;;3.23;2.40;;;;;;;23.15;68.06;97967.22;4998260;28;20238;-25
2023/09/29 09:39:33;;;;;;;7.30;2.50;;;;;;;23.15;68.03;97951.84;5000368;28;20233;-26
2023/09/29 09:42:05;;;;;;;2.37;1.97;;;;;;;23.14;68.11;97950.97;4995840;28;20214;-25
2023/09/29 09:44:38;;;;;;;5.07;2.80;;;;;;;23.13;67.96;97946.66;4998180;28;20198;-25
2023/09/29 09:47:10;;;;;;;2.83;2.20;;;;;;;23.14;68.09;97935.56;5007494;28;20716;-25
2023/09/29 09:49:56;;;;;;;2.83;2.30;;;;;;;23.14;67.98;97934.69;4990329;28;20214;-25
2023/09/29 09:52:29;;;;;;;2.40;2.20;;;;;;;23.14;67.77;97932.13;5014407;28;20272;-25
2023/09/29 09:54:58;;;;;;;2.43;2.20;;;;;;;23.09;67.98;97923.44;5012382;28;20816;-25
2023/09/29 09:57:32;;;;;;;4.00;2.17;;;;;;;23.14;67.80;97937.25;5013823;28;20294;-25
2023/09/29 10:00:06;;;;;;;5.17;2.30;;;;;;;23.13;67.69;97933.84;5011727;28;20198;-25
2023/09/29 10:02:39;;;;;;;2.33;2.13;;;;;;;23.07;67.91;97922.53;5013856;28;20235;-25
2023/09/29 10:05:16;;;;;;;5.20;2.03;;;;;;;23.15;67.95;97928.75;5005533;28;20194;-25
2023/09/29 10:07:46;;;;;;;3.67;2.00;;;;;;;23.15;67.80;97929.59;5011634;28;20720;-25
2023/09/29 10:10:31;;;;;;;3.30;2.50;;;;;;;23.16;67.92;97923.69;5013327;28;20198;-25
2023/09/29 10:13:01;;;;;;;4.07;2.53;;;;;;;23.18;67.97;97933.97;5002366;28;20720;-25
2023/09/29 10:15:29;;;;;;;4.97;2.40;;;;;;;23.17;67.36;97924.53;5013360;28;20280;-25
2023/09/29 10:17:58;;;;;;;3.97;2.50;;;;;;;23.17;67.76;97932.22;5008939;28;20774;-25
2023/09/29 10:20:26;;;;;;;2.43;2.23;;;;;;;23.16;67.81;97928.81;5013209;28;20249;-25
2023/09/29 10:23:06;;;;;;;2.67;2.47;;;;;;;23.16;67.86;97926.25;5006922;28;20210;-25
2023/09/29 10:25:37;;;;;;;3.37;2.37;;;;;;;23.16;67.86;97922.81;5012081;28;20723;-25
2023/09/29 10:28:07;;;;;;;4.63;2.33;;;;;;;23.15;67.81;97927.03;5006880;28;20233;-25
2023/09/29 10:30:34;;;;;;;5.03;2.47;;;;;;;23.15;67.87;97914.22;5013396;28;20203;-25
2023/09/29 10:33:05;;;;;;;5.93;2.37;;;;;;;23.16;67.87;97909.97;5001279;28;20202;-25
2023/09/29 10:35:33;;;;;;;6.13;2.43;;;;;;;23.16;67.81;97912.53;5002394;28;20257;-25
2023/09/29 10:38:07;;;;;;;2.83;2.50;;;;;;;23.16;68.00;97902.28;5012770;28;20218;-25
2023/09/29 10:40:36;;;;;;;3.20;2.27;;;;;;;23.16;67.81;97904.84;5002405;28;20203;-25
2023/09/29 10:43:03;;;;;;;2.50;2.30;;;;;;;23.16;67.85;97895.47;5009693;28;20199;-25
2023/09/29 10:45:40;;;;;;;4.90;2.10;;;;;;;23.17;68.08;97896.31;5012766;28;20190;-25
2023/09/29 10:48:08;;;;;;;5.53;2.37;;;;;;;23.16;67.92;97889.47;5012288;28;20226;-25
2023/09/29 10:50:44;;;;;;;4.20;2.40;;;;;;;23.15;68.11;97886.03;5012736;28;20222;-25
2023/09/29 10:53:12;;;;;;;2.80;2.40;;;;;;;23.17;68.04;97893.75;5011397;28;20579;-25
2023/09/29 10:55:46;;;;;;;5.67;2.70;;;;;;;23.09;67.87;97869.59;5011428;28;20233;-25
2023/09/29 10:58:14;;;;;;;3.77;2.70;;;;;;;23.16;67.83;97884.34;5009637;28;20224;-25
2023/09/29 11:00:48;;;;;;;4.70;2.63;;;;;;;22.47;67.83;97760.13;5010335;28;20666;-25
2023/09/29 11:03:21;;;;;;;5.23;2.50;;;;;;;23.16;67.73;97881.78;5006149;28;20253;-25
2023/09/29 11:05:51;;;;;;;4.77;2.53;;;;;;;23.14;67.83;97875.72;5012705;28;20570;-25
2023/09/29 11:08:21;;;;;;;3.80;2.30;;;;;;;23.17;67.81;97880.94;5010975;28;20224;-25
2023/09/29 11:11:14;;;;;;;2.83;2.33;;;;;;;23.15;67.72;97873.19;5011363;28;20604;-25
2023/09/29 11:13:41;;;;;;;4.33;2.53;;;;;;;23.14;67.89;97878.28;5008844;28;20776;-25
2023/09/29 11:16:15;;;;;;;2.60;2.10;;;;;;;23.17;67.84;97868.13;5009802;28;20269;-25
2023/09/29 11:18:41;;;;;;;3.40;2.37;;;;;;;23.17;67.66;97863.88;5012188;28;20222;-25
2023/09/29 11:21:11;;;;;;;5.67;2.30;;;;;;;23.17;67.91;97860.44;5012140;28;20635;-25
2023/09/29 11:23:45;;;;;;;6.43;2.47;;;;;;;23.16;67.87;97857.00;5009583;28;20634;-25
2023/09/29 11:26:12;;;;;;;4.93;2.60;;;;;;;23.16;67.70;97851.88;5006957;28;20194;-25
2023/09/29 11:28:43;;;;;;;3.63;2.67;;;;;;;23.17;67.84;97857.84;5012041;28;20230;-25
2023/09/29 11:31:12;;;;;;;4.80;2.27;;;;;;;23.17;67.86;97852.72;5011963;28;20199;-25
2023/09/29 11:33:39;;;;;;;6.67;2.70;;;;;;;23.17;67.93;97851.03;5003880;28;20238;-25
2023/09/29 11:36:17;;;;;;;3.10;2.20;;;;;;;23.18;67.71;97854.50;5010147;28;20219;-25
2023/09/29 11:38:45;;;;;;;3.83;2.50;;;;;;;23.16;67.97;97849.31;5001308;28;20231;-26